Page Field Fort Myers US
ICAO: KFMY
IATA: FMY
Category: Medium
Scheduled Services: No

Elevation: 17 ft
TransAlt. 18000 ft.

Airport Communications:
FORT MYERS APP/DEP:126.8
ATIS:123.725
CLNC DEL:121.7
CTAF:119
GND:121.7
MIAMI RDO:122.2
TWR:119
UNICOM:130.55

KFMY Zoom In..

Runways:

(A) RW 05 length 6406 ft width 150 ft
ILS 110.70 / hdg 51

(B) RW 13 length 4912 ft width 150 ft
---- / hdg 133

(C) RW 23 length 6406 ft width 150 ft
---- / hdg 231

(D) RW 31 length 4912 ft width 150 ft
---- / hdg 313

Location; KFMY
Day. 24 / Time. 01.53 Zulu
* Altimeter: 30.08
* Temperature: 21° c. 69.8°f.
* Wind from: 340° Speed 04 kn.
Dewpoint: 20° c.
Visibility: 8 Statute Miles.
Clouds: Clear (automated report).

KFMY 240153Z 34004KT 8SM CLR 21/20 A3008 RMK AO2 SLP189 T02060200


Wind From 340°
Speed 04 kn.

YouTube Music Video
 
jpsmedia.com for Web Design  worldairports.se 2018   terms of use